This is the latest recevied weather packets stored in our database for station/object W9GWP. If no packets are shown the sender has not sent any weather packets the latest 10 day(s).
| Time | Temp. | Humidity | Pressure | Rain* | Wind** | Luminosity | Snow |
|---|---|---|---|---|---|---|---|
| 1777769224 | 10.56° C | 50% | 1044.3 hPa | 0 mm | - | 1 W/m² | - |
| 1777768322 | 11.67° C | 47% | 1044.5 hPa | 0 mm | - | 9 W/m² | - |
| 1777767417 | 12.22° C | 46% | 1044.5 hPa | 0 mm | - | 20 W/m² | - |
| 1777766515 | 12.22° C | 44% | 1044.6 hPa | 0 mm | - | 29 W/m² | - |
| 1777765611 | 12.78° C | 42% | 1044.7 hPa | 0 mm | - | 38 W/m² | - |
| 1777764707 | 12.78° C | 41% | 1044.7 hPa | 0 mm | - | 44 W/m² | - |
| 1777763803 | 13.33° C | 40% | 1044.8 hPa | 0 mm | - | 142 W/m² | - |
| 1777762903 | 12.78° C | 43% | 1045 hPa | 0 mm | - | 87 W/m² | - |
| 1777762004 | 13.33° C | 41% | 1045.2 hPa | 0 mm | - | 93 W/m² | - |
| 1777761103 | 13.33° C | 41% | 1045.1 hPa | 0 mm | - | 290 W/m² | - |
| 1777760197 | 12.78° C | 41% | 1045.2 hPa | 0 mm | - | 382 W/m² | - |
| 1777759293 | 12.78° C | 42% | 1045.5 hPa | 0 mm | - | 127 W/m² | - |
| 1777758391 | 12.78° C | 40% | 1045.3 hPa | 0 mm | - | 535 W/m² | - |
| 1777757488 | 12.78° C | 41% | 1045.2 hPa | 0 mm | - | 440 W/m² | - |
| 1777756586 | 13.33° C | 40% | 1045.5 hPa | 0 mm | - | 235 W/m² | - |
| 1777755683 | 12.78° C | 41% | 1045.8 hPa | 0 mm | - | 166 W/m² | - |
| 1777754779 | 12.22° C | 41% | 1045.7 hPa | 0 mm | - | 235 W/m² | - |
| 1777753878 | 12.22° C | 41% | 1046 hPa | 0 mm | - | 236 W/m² | - |
| 1777752973 | 12.22° C | 43% | 1045.9 hPa | 0 mm | - | 122 W/m² | - |
| 1777752069 | 12.22° C | 40% | 1046.2 hPa | 0 mm | - | 760 W/m² | - |
| 1777751166 | 11.67° C | 43% | 1046.4 hPa | 0 mm | - | 365 W/m² | - |
| 1777750261 | 11.67° C | 44% | 1046.6 hPa | 0 mm | - | 703 W/m² | - |
| 1777749357 | 11.67° C | 43% | 1047 hPa | 0 mm | - | 717 W/m² | - |
| 1777748456 | 11.11° C | 42% | 1047 hPa | 0 mm | - | 286 W/m² | - |
| 1777747555 | 11.11° C | 43% | 1047.4 hPa | 0 mm | - | 275 W/m² | - |
* Rain latest hour (hover to see other rain measurements)
** Current wind speed in m/s (hover to see current wind gust speed)